createdAt,value
2022-09-28T00:00:24.060Z,15.23
2022-09-28T00:02:26.599Z,15.14
2022-09-28T00:04:28.401Z,15.01
2022-09-28T00:06:30.772Z,14.97
2022-09-28T00:08:33.472Z,14.89
2022-09-28T00:10:35.089Z,14.87
2022-09-28T00:12:36.897Z,14.79
2022-09-28T00:14:40.815Z,14.56
2022-09-28T00:16:43.933Z,14.45
2022-09-28T00:18:45.994Z,14.48
2022-09-28T00:20:47.602Z,14.44
2022-09-28T00:22:49.258Z,14.44
2022-09-28T00:24:50.847Z,14.48
2022-09-28T00:26:54.949Z,14.46
2022-09-28T00:28:59.277Z,14.46
2022-09-28T00:31:01.213Z,14.44
2022-09-28T00:33:02.861Z,14.46
2022-09-28T00:35:05.029Z,14.50
2022-09-28T00:37:08.949Z,14.57
2022-09-28T00:39:11.770Z,14.54
2022-09-28T00:41:13.782Z,14.47
2022-09-28T00:43:20.449Z,14.46
2022-09-28T00:45:24.993Z,14.46
2022-09-28T00:47:55.770Z,14.45
2022-09-28T00:50:22.384Z,14.50
2022-09-28T00:52:31.361Z,14.54
2022-09-28T00:54:33.941Z,14.58
2022-09-28T00:56:36.678Z,14.58
2022-09-28T00:58:45.324Z,14.58
2022-09-28T01:00:48.601Z,14.56
2022-09-28T01:02:50.252Z,14.57
2022-09-28T01:04:52.264Z,14.56
2022-09-28T01:06:54.079Z,14.58
2022-09-28T01:08:58.908Z,14.59
2022-09-28T01:11:00.799Z,14.61
2022-09-28T01:13:02.513Z,14.59
2022-09-28T01:15:05.624Z,14.30
2022-09-28T01:17:12.277Z,14.19
2022-09-28T01:19:22.265Z,14.23
2022-09-28T01:21:24.603Z,14.24
2022-09-28T01:23:44.988Z,14.27
2022-09-28T01:26:09.246Z,14.36
2022-09-28T01:28:16.206Z,14.34
2022-09-28T01:30:20.481Z,13.88
2022-09-28T01:32:22.096Z,13.41
2022-09-28T01:35:03.710Z,13.42
2022-09-28T01:37:07.829Z,13.54
2022-09-28T01:39:12.782Z,13.63
2022-09-28T01:41:17.865Z,13.71
2022-09-28T01:43:30.509Z,13.82
2022-09-28T01:45:45.713Z,13.93
2022-09-28T01:47:48.497Z,13.85
2022-09-28T01:50:00.777Z,13.87
2022-09-28T01:52:29.713Z,13.84
2022-09-28T01:54:36.110Z,13.77
2022-09-28T01:56:46.050Z,13.80
2022-09-28T01:58:53.534Z,13.83
2022-09-28T02:01:02.687Z,13.74
2022-09-28T02:03:14.378Z,13.75
2022-09-28T02:05:19.685Z,13.49
2022-09-28T02:07:50.093Z,13.34
2022-09-28T02:09:58.702Z,13.43
2022-09-28T02:12:05.397Z,13.50
2022-09-28T02:14:11.887Z,13.60
2022-09-28T02:16:18.317Z,13.70
2022-09-28T02:18:20.250Z,13.79
2022-09-28T02:20:24.011Z,13.84
2022-09-28T02:22:27.260Z,13.83
2022-09-28T02:24:42.193Z,13.64
2022-09-28T02:26:45.876Z,13.57
2022-09-28T02:28:47.557Z,13.59
2022-09-28T02:30:49.264Z,13.46
2022-09-28T02:32:53.705Z,13.45
2022-09-28T02:34:55.510Z,13.54
2022-09-28T02:36:57.221Z,13.58
2022-09-28T02:39:02.480Z,13.61
2022-09-28T02:41:33.100Z,13.67
2022-09-28T02:43:56.681Z,13.54
2022-09-28T02:46:16.958Z,13.34
2022-09-28T02:48:44.132Z,13.41
2022-09-28T02:51:04.493Z,13.10
2022-09-28T02:53:30.683Z,13.07
2022-09-28T02:55:50.700Z,13.19
2022-09-28T02:58:11.694Z,13.32
2022-09-28T03:00:23.597Z,13.42
2022-09-28T03:02:40.560Z,13.49
2022-09-28T03:05:20.822Z,13.38
2022-09-28T03:07:38.669Z,13.36
2022-09-28T03:09:52.544Z,13.40
2022-09-28T03:11:57.326Z,13.44
2022-09-28T03:13:59.601Z,13.49
2022-09-28T03:16:13.779Z,13.55
2022-09-28T03:18:15.295Z,13.57
2022-09-28T03:20:17.425Z,13.56
2022-09-28T03:22:19.006Z,13.57
2022-09-28T03:24:20.587Z,13.63
2022-09-28T03:26:22.378Z,13.68
2022-09-28T03:28:24.012Z,13.67
2022-09-28T03:30:25.639Z,13.63
2022-09-28T03:32:27.280Z,13.67
2022-09-28T03:34:28.849Z,13.69
2022-09-28T03:36:30.481Z,13.69
2022-09-28T03:38:32.127Z,13.75
2022-09-28T03:40:33.795Z,13.80
2022-09-28T03:42:37.198Z,13.84
2022-09-28T03:44:39.406Z,13.58
2022-09-28T03:46:41.052Z,13.50
2022-09-28T03:48:42.739Z,13.51
2022-09-28T03:50:44.381Z,13.59
2022-09-28T03:52:46.084Z,13.64
2022-09-28T03:54:49.368Z,13.72
2022-09-28T03:56:52.294Z,13.82
2022-09-28T03:58:53.876Z,13.90
2022-09-28T04:00:55.573Z,13.94
2022-09-28T04:02:57.263Z,13.95
2022-09-28T04:04:58.833Z,13.99
2022-09-28T04:07:00.464Z,13.89
2022-09-28T04:09:02.169Z,13.64
2022-09-28T04:11:03.746Z,13.60
2022-09-28T04:13:05.397Z,13.66
2022-09-28T04:15:07.703Z,13.31
2022-09-28T04:17:09.332Z,13.40
2022-09-28T04:19:10.953Z,13.49
2022-09-28T04:21:14.338Z,13.55
2022-09-28T04:23:16.171Z,13.64
2022-09-28T04:25:17.817Z,13.71
2022-09-28T04:27:37.965Z,13.79
2022-09-28T04:29:41.777Z,13.84
2022-09-28T04:31:43.311Z,13.93
2022-09-28T04:33:45.146Z,13.99
2022-09-28T04:35:46.765Z,14.01
2022-09-28T04:37:48.429Z,14.09
2022-09-28T04:39:50.020Z,14.13
2022-09-28T04:41:51.711Z,14.16
2022-09-28T04:43:53.340Z,14.21
2022-09-28T04:46:05.667Z,14.27
2022-09-28T04:48:08.010Z,14.31
2022-09-28T04:50:09.702Z,14.06
2022-09-28T04:52:17.212Z,14.06
2022-09-28T04:54:19.775Z,14.10
2022-09-28T04:56:21.393Z,13.87
2022-09-28T04:58:23.384Z,13.82
2022-09-28T05:00:24.951Z,13.84
2022-09-28T05:02:28.025Z,13.88
2022-09-28T05:04:30.762Z,13.78
2022-09-28T05:06:32.374Z,13.76
2022-09-28T05:08:35.420Z,13.63
2022-09-28T05:10:40.425Z,13.72
2022-09-28T05:12:42.008Z,13.86
2022-09-28T05:14:44.146Z,13.99
2022-09-28T05:16:45.817Z,14.10
2022-09-28T05:18:47.583Z,14.23
2022-09-28T05:20:49.270Z,14.27
2022-09-28T05:22:50.867Z,14.33
2022-09-28T05:24:52.545Z,14.37
2022-09-28T05:26:54.495Z,14.46
2022-09-28T05:28:56.626Z,14.54
2022-09-28T05:31:02.926Z,14.65
2022-09-28T05:33:05.087Z,14.61
2022-09-28T05:35:07.291Z,14.55
2022-09-28T05:37:08.907Z,14.36
2022-09-28T05:39:10.677Z,14.22
2022-09-28T05:41:12.862Z,14.27
2022-09-28T05:43:14.563Z,14.22
2022-09-28T05:45:16.406Z,14.42
2022-09-28T05:47:17.973Z,14.46
2022-09-28T05:49:19.633Z,14.65
2022-09-28T05:51:21.655Z,14.87
2022-09-28T05:53:23.484Z,15.08
2022-09-28T05:55:25.430Z,15.22
2022-09-28T05:57:27.129Z,15.38
2022-09-28T05:59:30.296Z,15.52
2022-09-28T06:01:32.022Z,15.65
2022-09-28T06:03:33.894Z,15.79
2022-09-28T06:05:36.314Z,15.85
2022-09-28T06:07:37.949Z,15.94
2022-09-28T06:09:39.618Z,16.08
2022-09-28T06:11:41.211Z,16.00
2022-09-28T06:13:42.849Z,16.02
2022-09-28T06:15:46.413Z,16.12
2022-09-28T06:17:48.184Z,16.00
2022-09-28T06:19:52.424Z,16.05
2022-09-28T06:21:54.031Z,15.81
2022-09-28T06:23:55.641Z,15.42
2022-09-28T06:25:59.343Z,15.15
2022-09-28T06:28:10.692Z,14.88
2022-09-28T06:30:12.615Z,14.68
2022-09-28T06:32:14.717Z,14.69
2022-09-28T06:34:16.966Z,14.82
2022-09-28T06:36:20.903Z,14.68
2022-09-28T06:38:22.618Z,14.82
2022-09-28T06:40:24.945Z,15.00
2022-09-28T06:42:26.623Z,15.06
2022-09-28T06:44:28.439Z,15.13
2022-09-28T06:46:31.518Z,14.99
2022-09-28T06:48:35.989Z,15.03
2022-09-28T06:50:40.533Z,15.19
2022-09-28T06:52:42.411Z,15.15
2022-09-28T06:54:43.998Z,15.22
2022-09-28T06:56:45.682Z,15.27
2022-09-28T06:58:48.086Z,15.21
2022-09-28T07:00:53.108Z,15.32
2022-09-28T07:02:54.827Z,15.21
2022-09-28T07:04:56.496Z,15.31
2022-09-28T07:06:59.103Z,15.42
2022-09-28T07:09:20.938Z,15.31
2022-09-28T07:11:27.016Z,15.05
2022-09-28T07:13:49.097Z,15.14
2022-09-28T07:15:58.007Z,15.36
2022-09-28T07:18:03.529Z,15.47
2022-09-28T07:20:17.247Z,15.52
2022-09-28T07:22:30.662Z,15.67
2022-09-28T07:24:36.260Z,15.79
2022-09-28T07:26:37.926Z,15.89
2022-09-28T07:28:40.509Z,16.12
2022-09-28T07:30:44.972Z,16.36
2022-09-28T07:32:48.427Z,16.26
2022-09-28T07:34:50.269Z,15.82
2022-09-28T07:36:57.435Z,15.71
2022-09-28T07:38:59.152Z,15.80
2022-09-28T07:41:12.873Z,15.82
2022-09-28T07:43:14.793Z,16.01
2022-09-28T07:45:16.733Z,16.13
2022-09-28T07:47:19.180Z,16.25
2022-09-28T07:49:22.491Z,16.35
2022-09-28T07:51:24.162Z,16.48
2022-09-28T07:53:25.953Z,16.35
2022-09-28T07:55:27.543Z,16.45
2022-09-28T07:57:29.378Z,16.51
2022-09-28T07:59:31.768Z,16.58
2022-09-28T08:01:33.438Z,16.62
2022-09-28T08:03:35.734Z,16.65
2022-09-28T08:05:37.643Z,16.65
2022-09-28T08:07:39.363Z,16.50
2022-09-28T08:09:41.078Z,16.52
2022-09-28T08:11:43.891Z,16.57
2022-09-28T08:13:46.550Z,16.64
2022-09-28T08:15:51.621Z,16.68
2022-09-28T08:17:53.444Z,16.73
2022-09-28T08:20:13.849Z,16.79
2022-09-28T08:22:17.860Z,16.85
2022-09-28T08:24:19.585Z,16.89
2022-09-28T08:26:21.871Z,16.95
2022-09-28T08:28:24.219Z,17.00
2022-09-28T08:30:26.775Z,17.11
2022-09-28T08:32:29.739Z,17.32
2022-09-28T08:34:31.360Z,17.40
2022-09-28T08:36:34.467Z,17.56
2022-09-28T08:38:36.098Z,17.84
2022-09-28T08:41:04.743Z,18.07
2022-09-28T08:43:31.265Z,17.90
2022-09-28T08:45:35.001Z,17.82
2022-09-28T08:47:59.709Z,17.66
2022-09-28T08:50:03.583Z,17.32
2022-09-28T08:52:23.531Z,17.45
2022-09-28T08:54:49.094Z,17.59
2022-09-28T08:56:54.430Z,17.97
2022-09-28T08:59:00.086Z,18.31
2022-09-28T09:01:02.533Z,17.97
2022-09-28T09:03:06.319Z,17.74
2022-09-28T09:05:14.872Z,17.96
2022-09-28T09:07:25.690Z,18.33
2022-09-28T09:10:01.154Z,18.46
2022-09-28T09:12:03.426Z,18.42
2022-09-28T09:14:21.521Z,18.39
2022-09-28T09:16:28.758Z,18.77
2022-09-28T09:18:58.846Z,18.98
2022-09-28T09:21:10.535Z,19.31
2022-09-28T09:24:07.668Z,19.66
2022-09-28T09:26:22.647Z,19.33
2022-09-28T09:28:35.278Z,19.16
2022-09-28T09:31:05.754Z,19.26
2022-09-28T09:33:39.853Z,19.48
2022-09-28T09:36:09.409Z,19.83
2022-09-28T09:38:32.562Z,19.75
2022-09-28T09:40:38.515Z,19.83
2022-09-28T09:42:59.321Z,19.90
2022-09-28T09:45:24.844Z,19.98
2022-09-28T09:47:32.298Z,20.23
2022-09-28T09:49:44.096Z,20.29
2022-09-28T09:52:14.652Z,20.54
2022-09-28T09:54:19.532Z,20.41
2022-09-28T09:56:50.038Z,20.37
2022-09-28T09:58:54.054Z,20.49
2022-09-28T10:01:08.521Z,20.59
2022-09-28T10:03:24.205Z,20.29
2022-09-28T10:05:27.867Z,20.04
2022-09-28T10:07:43.204Z,20.17
2022-09-28T10:09:46.656Z,20.18
2022-09-28T10:11:50.442Z,20.42
2022-09-28T10:13:52.040Z,20.46
2022-09-28T10:15:53.696Z,20.61
2022-09-28T10:17:56.901Z,20.90
2022-09-28T10:19:58.960Z,21.17
2022-09-28T10:22:04.274Z,21.27
2022-09-28T10:24:07.801Z,21.13
2022-09-28T10:26:16.583Z,20.74
2022-09-28T10:28:23.020Z,20.67
2022-09-28T10:30:25.696Z,20.88
2022-09-28T10:32:36.757Z,21.05
2022-09-28T10:34:38.524Z,21.11
2022-09-28T10:36:50.722Z,21.37
2022-09-28T10:38:54.254Z,21.41
2022-09-28T10:40:58.660Z,21.54
2022-09-28T10:43:01.008Z,21.65
2022-09-28T10:45:05.633Z,21.70
2022-09-28T10:47:15.301Z,21.92
2022-09-28T10:49:18.333Z,22.12
2022-09-28T10:51:20.366Z,22.32
2022-09-28T10:53:21.942Z,22.54
2022-09-28T10:55:32.179Z,22.70
2022-09-28T10:57:36.780Z,22.90
2022-09-28T10:59:42.162Z,23.04
2022-09-28T11:01:43.970Z,23.13
2022-09-28T11:03:57.817Z,23.22
2022-09-28T11:06:08.899Z,23.27
2022-09-28T11:08:20.782Z,23.21
2022-09-28T11:10:28.666Z,23.00
2022-09-28T11:12:38.185Z,22.47
2022-09-28T11:14:42.604Z,22.49
2022-09-28T11:16:44.548Z,22.67
2022-09-28T11:18:46.147Z,22.96
2022-09-28T11:20:49.574Z,23.21
2022-09-28T11:22:53.585Z,23.44
2022-09-28T11:25:16.518Z,23.56
2022-09-28T11:27:25.498Z,23.55
2022-09-28T11:29:36.522Z,23.53
2022-09-28T11:31:39.809Z,23.49
2022-09-28T11:33:45.796Z,23.58
2022-09-28T11:36:14.959Z,23.58
2022-09-28T11:38:27.308Z,23.61
2022-09-28T11:40:29.008Z,23.73
2022-09-28T11:42:58.457Z,23.77
2022-09-28T11:45:29.798Z,23.51
2022-09-28T11:47:52.906Z,23.45
2022-09-28T11:50:23.831Z,23.48
2022-09-28T11:52:49.332Z,23.53
2022-09-28T11:55:05.682Z,23.51
2022-09-28T11:57:15.618Z,23.50
2022-09-28T11:59:32.011Z,23.43
2022-09-28T12:01:57.822Z,23.36
2022-09-28T12:04:04.438Z,23.29
2022-09-28T12:06:09.103Z,23.39
2022-09-28T12:08:19.958Z,23.55
2022-09-28T12:10:49.985Z,23.63
2022-09-28T12:12:58.429Z,23.65
2022-09-28T12:15:04.557Z,23.75
2022-09-28T12:18:04.773Z,23.87
2022-09-28T12:20:27.715Z,23.89
2022-09-28T12:22:35.180Z,23.88
2022-09-28T12:24:44.448Z,23.97
2022-09-28T12:27:10.096Z,24.17
2022-09-28T12:29:26.173Z,24.23
2022-09-28T12:31:32.487Z,24.26
2022-09-28T12:33:34.213Z,24.22
2022-09-28T12:35:41.322Z,24.28
2022-09-28T12:37:45.781Z,24.37
2022-09-28T12:40:13.130Z,24.28
2022-09-28T12:42:44.440Z,24.09
2022-09-28T12:44:46.017Z,24.18
2022-09-28T12:47:16.284Z,24.14
2022-09-28T12:51:48.584Z,24.01
2022-09-28T12:54:19.004Z,24.09
2022-09-28T12:56:24.388Z,24.05
2022-09-28T12:58:44.823Z,24.17
2022-09-28T13:00:59.661Z,24.20
2022-09-28T13:03:31.424Z,24.09
2022-09-28T13:06:09.816Z,23.86
2022-09-28T13:08:25.516Z,23.67
2022-09-28T13:10:35.964Z,23.55
2022-09-28T13:13:02.449Z,23.37
2022-09-28T13:15:39.842Z,23.36
2022-09-28T13:17:54.877Z,23.26
2022-09-28T13:20:15.733Z,23.14
2022-09-28T13:22:35.893Z,23.09
2022-09-28T13:24:38.994Z,22.98
2022-09-28T13:26:44.866Z,22.95
2022-09-28T13:28:47.687Z,23.05
2022-09-28T13:30:50.759Z,23.16
2022-09-28T13:32:54.478Z,23.23
2022-09-28T13:34:56.724Z,23.28
2022-09-28T13:37:23.537Z,23.47
2022-09-28T13:39:37.686Z,23.56
2022-09-28T13:41:40.620Z,23.54
2022-09-28T13:44:00.449Z,23.22
2022-09-28T13:46:34.486Z,23.16
2022-09-28T13:48:48.757Z,22.95
2022-09-28T13:51:12.000Z,22.92
2022-09-28T13:53:25.784Z,22.73
2022-09-28T13:55:48.914Z,22.59
2022-09-28T13:58:31.012Z,22.57
2022-09-28T14:00:43.539Z,22.53
2022-09-28T14:02:54.235Z,22.40
2022-09-28T14:05:04.810Z,22.40
2022-09-28T14:07:23.232Z,22.35
2022-09-28T14:09:39.041Z,22.27
2022-09-28T14:11:43.868Z,22.22
2022-09-28T14:14:21.528Z,22.25
2022-09-28T14:16:24.078Z,22.27
2022-09-28T14:18:29.935Z,22.24
2022-09-28T14:20:31.935Z,22.24
2022-09-28T14:22:36.159Z,22.23
2022-09-28T14:25:06.518Z,22.21
2022-09-28T14:27:17.284Z,22.13
2022-09-28T14:29:29.779Z,22.11
2022-09-28T14:31:31.419Z,22.12
2022-09-28T14:33:34.124Z,22.08
2022-09-28T14:35:40.505Z,22.08
2022-09-28T14:38:01.152Z,22.05
2022-09-28T14:40:54.449Z,21.98
2022-09-28T14:43:33.375Z,22.05
2022-09-28T14:45:36.456Z,22.15
2022-09-28T14:47:42.814Z,22.25
2022-09-28T14:49:45.780Z,22.35
2022-09-28T14:51:47.328Z,22.47
2022-09-28T14:53:50.577Z,22.49
2022-09-28T14:55:58.536Z,22.54
2022-09-28T14:58:00.123Z,22.58
2022-09-28T15:00:09.056Z,22.48
2022-09-28T15:02:10.598Z,22.52
2022-09-28T15:04:12.901Z,22.72
2022-09-28T15:06:16.203Z,22.82
2022-09-28T15:08:21.098Z,22.88
2022-09-28T15:10:27.703Z,23.03
2022-09-28T15:12:32.963Z,23.01
2022-09-28T15:14:40.542Z,23.02
2022-09-28T15:16:42.274Z,22.95
2022-09-28T15:19:09.471Z,22.79
2022-09-28T15:21:12.472Z,22.72
2022-09-28T15:23:39.160Z,22.59
2022-09-28T15:25:41.027Z,22.62
2022-09-28T15:27:42.867Z,22.78
2022-09-28T15:30:15.612Z,22.88
2022-09-28T15:32:24.912Z,23.03
2022-09-28T15:34:46.452Z,23.12
2022-09-28T15:36:48.389Z,23.14
2022-09-28T15:39:00.510Z,23.03
2022-09-28T15:41:06.891Z,22.86
2022-09-28T15:43:28.954Z,22.72
2022-09-28T15:45:35.307Z,22.54
2022-09-28T15:47:38.830Z,22.37
2022-09-28T15:49:44.534Z,22.27
2022-09-28T15:51:50.210Z,22.20
2022-09-28T15:53:58.414Z,22.12
2022-09-28T15:56:05.639Z,22.05
2022-09-28T15:58:15.867Z,21.90
2022-09-28T16:00:26.281Z,21.76
2022-09-28T16:02:28.114Z,21.74
2022-09-28T16:04:48.261Z,21.70
2022-09-28T16:07:27.636Z,21.70
2022-09-28T16:09:36.081Z,21.64
2022-09-28T16:11:42.054Z,21.55
2022-09-28T16:14:01.878Z,21.48
2022-09-28T16:16:03.599Z,21.47
2022-09-28T16:18:20.796Z,21.45
2022-09-28T16:20:40.287Z,21.42
2022-09-28T16:22:43.139Z,21.40
2022-09-28T16:24:54.274Z,21.39
2022-09-28T16:27:07.388Z,21.32
2022-09-28T16:29:25.825Z,21.26
2022-09-28T16:31:33.770Z,21.24
2022-09-28T16:33:43.784Z,21.21
2022-09-28T16:35:48.337Z,21.21
2022-09-28T16:37:58.078Z,21.16
2022-09-28T16:39:59.657Z,21.15
2022-09-28T16:42:03.184Z,21.15
2022-09-28T16:44:04.931Z,21.11
2022-09-28T16:46:12.127Z,21.09
2022-09-28T16:48:17.157Z,21.05
2022-09-28T16:50:22.913Z,21.02
2022-09-28T16:52:43.070Z,21.01
2022-09-28T16:55:07.442Z,21.01
2022-09-28T16:57:19.506Z,21.00
2022-09-28T16:59:22.313Z,21.01
2022-09-28T17:01:24.716Z,21.01
2022-09-28T17:03:27.259Z,21.01
2022-09-28T17:05:29.540Z,21.03
2022-09-28T17:07:31.899Z,21.01
2022-09-28T17:09:33.951Z,20.98
2022-09-28T17:11:35.514Z,20.99
2022-09-28T17:13:37.493Z,20.99
2022-09-28T17:15:40.097Z,20.95
2022-09-28T17:17:41.954Z,20.95
2022-09-28T17:19:44.862Z,20.94
2022-09-28T17:21:46.879Z,20.92
2022-09-28T17:23:49.814Z,20.96
2022-09-28T17:25:53.752Z,20.95
2022-09-28T17:27:57.708Z,20.97
2022-09-28T17:29:59.337Z,20.99
2022-09-28T17:32:01.108Z,20.97
2022-09-28T17:34:03.018Z,20.99
2022-09-28T17:36:05.255Z,21.00
2022-09-28T17:38:06.997Z,20.97
2022-09-28T17:40:35.095Z,20.98
2022-09-28T17:42:36.816Z,20.97
2022-09-28T17:44:38.379Z,20.97
2022-09-28T17:46:47.454Z,20.92
2022-09-28T17:48:49.760Z,20.94
2022-09-28T17:50:51.361Z,20.92
2022-09-28T17:52:53.325Z,20.92
2022-09-28T17:54:55.197Z,20.92
2022-09-28T17:56:56.843Z,20.88
2022-09-28T17:59:10.740Z,20.89
2022-09-28T18:01:12.614Z,20.92
2022-09-28T18:03:24.669Z,20.90
2022-09-28T18:05:27.754Z,20.91
2022-09-28T18:07:31.160Z,20.86
2022-09-28T18:09:32.730Z,20.88
2022-09-28T18:11:35.278Z,20.85
2022-09-28T18:13:37.443Z,20.82
2022-09-28T18:15:39.047Z,20.83
2022-09-28T18:17:40.906Z,20.85
2022-09-28T18:19:42.560Z,20.87
2022-09-28T18:21:44.118Z,20.91
2022-09-28T18:23:45.738Z,20.90
2022-09-28T18:25:48.348Z,20.88
2022-09-28T18:27:49.930Z,20.92
2022-09-28T18:29:51.678Z,20.91
2022-09-28T18:31:53.326Z,20.90
2022-09-28T18:34:01.757Z,20.89
2022-09-28T18:36:04.638Z,20.91
2022-09-28T18:38:07.007Z,20.91
2022-09-28T18:40:10.223Z,20.92
2022-09-28T18:42:12.746Z,20.96
2022-09-28T18:44:14.732Z,20.95
2022-09-28T18:46:18.310Z,20.94
2022-09-28T18:48:20.188Z,20.96
2022-09-28T18:50:22.172Z,20.95
2022-09-28T18:52:23.801Z,20.84
2022-09-28T18:54:25.512Z,20.83
2022-09-28T18:56:27.186Z,20.85
2022-09-28T18:58:28.773Z,20.88
2022-09-28T19:00:30.422Z,20.80
2022-09-28T19:02:32.273Z,20.66
2022-09-28T19:04:34.027Z,20.44
2022-09-28T19:06:40.720Z,19.91
2022-09-28T19:08:43.217Z,19.67
2022-09-28T19:10:46.958Z,19.74
2022-09-28T19:12:48.648Z,19.79
2022-09-28T19:14:50.321Z,19.74
2022-09-28T19:16:52.075Z,19.80
2022-09-28T19:18:53.965Z,19.90
2022-09-28T19:20:55.822Z,19.94
2022-09-28T19:22:57.787Z,19.96
2022-09-28T19:24:59.427Z,20.03
2022-09-28T19:27:01.008Z,20.08
2022-09-28T19:29:03.290Z,20.09
2022-09-28T19:31:06.662Z,20.08
2022-09-28T19:33:08.260Z,20.07
2022-09-28T19:35:10.003Z,20.03
2022-09-28T19:37:11.665Z,20.00
2022-09-28T19:39:14.716Z,19.71
2022-09-28T19:41:42.225Z,19.64
2022-09-28T19:43:44.942Z,19.46
2022-09-28T19:45:52.072Z,19.45
2022-09-28T19:47:58.666Z,19.33
2022-09-28T19:50:00.919Z,19.29
2022-09-28T19:52:15.886Z,19.10
2022-09-28T19:54:19.075Z,18.99
2022-09-28T19:56:21.618Z,19.10
2022-09-28T19:58:25.775Z,19.19
2022-09-28T20:00:27.786Z,19.24
2022-09-28T20:02:29.459Z,19.31
2022-09-28T20:04:31.128Z,19.37
2022-09-28T20:06:32.809Z,19.44
2022-09-28T20:08:35.735Z,19.53
2022-09-28T20:10:37.619Z,19.58
2022-09-28T20:12:41.145Z,19.50
2022-09-28T20:14:42.926Z,19.51
2022-09-28T20:16:46.344Z,19.60
2022-09-28T20:18:51.608Z,19.73
2022-09-28T20:21:02.301Z,19.74
2022-09-28T20:23:04.899Z,19.86
2022-09-28T20:25:07.089Z,19.89
2022-09-28T20:27:08.744Z,19.78
2022-09-28T20:29:10.917Z,19.49
2022-09-28T20:31:18.167Z,19.31
2022-09-28T20:33:28.657Z,19.24
2022-09-28T20:35:33.334Z,19.21
2022-09-28T20:37:35.066Z,19.22
2022-09-28T20:39:39.394Z,19.28
2022-09-28T20:41:43.491Z,19.32
2022-09-28T20:43:46.795Z,19.19
2022-09-28T20:45:50.787Z,19.14
2022-09-28T20:47:52.696Z,19.19
2022-09-28T20:49:54.265Z,19.25
2022-09-28T20:51:55.928Z,19.27
2022-09-28T20:53:58.891Z,19.21
2022-09-28T20:56:21.731Z,19.06
2022-09-28T20:58:23.375Z,18.89
2022-09-28T21:00:25.078Z,18.73
2022-09-28T21:02:26.845Z,18.71
2022-09-28T21:04:28.572Z,18.74
2022-09-28T21:06:32.306Z,18.69
2022-09-28T21:08:33.814Z,18.31
2022-09-28T21:10:35.395Z,18.21
2022-09-28T21:12:37.532Z,18.21
2022-09-28T21:14:39.103Z,18.25
2022-09-28T21:16:40.730Z,18.32
2022-09-28T21:18:43.017Z,18.38
2022-09-28T21:20:50.528Z,18.33
2022-09-28T21:22:52.187Z,18.18
2022-09-28T21:24:53.920Z,18.19
2022-09-28T21:26:55.694Z,18.13
2022-09-28T21:29:05.719Z,17.99
2022-09-28T21:31:09.676Z,17.95
2022-09-28T21:33:11.352Z,18.07
2022-09-28T21:35:12.984Z,18.20
2022-09-28T21:37:14.830Z,18.33
2022-09-28T21:39:16.659Z,18.38
2022-09-28T21:41:18.226Z,18.42
2022-09-28T21:43:19.997Z,18.10
2022-09-28T21:45:21.870Z,18.00
2022-09-28T21:47:23.502Z,17.99
2022-09-28T21:49:25.132Z,18.06
2022-09-28T21:51:27.219Z,18.06
2022-09-28T21:53:34.624Z,18.09
2022-09-28T21:55:36.742Z,18.07
2022-09-28T21:57:38.326Z,17.97
2022-09-28T21:59:39.944Z,17.79
2022-09-28T22:01:42.841Z,17.81
2022-09-28T22:03:48.011Z,17.59
2022-09-28T22:05:51.606Z,17.65
2022-09-28T22:07:54.072Z,17.68
2022-09-28T22:09:55.651Z,17.65
2022-09-28T22:11:57.325Z,17.62
2022-09-28T22:14:00.213Z,17.67
2022-09-28T22:16:02.328Z,17.49
2022-09-28T22:18:04.029Z,17.54
2022-09-28T22:20:06.189Z,17.60
2022-09-28T22:22:08.657Z,17.66
2022-09-28T22:24:10.445Z,17.67
2022-09-28T22:26:17.896Z,17.58
2022-09-28T22:28:19.587Z,17.59
2022-09-28T22:30:21.202Z,17.63
2022-09-28T22:32:24.091Z,17.69
2022-09-28T22:34:27.436Z,17.74
2022-09-28T22:36:29.450Z,17.73
2022-09-28T22:38:32.184Z,17.64
2022-09-28T22:40:33.886Z,17.60
2022-09-28T22:42:35.506Z,17.47
2022-09-28T22:44:37.802Z,17.44
2022-09-28T22:46:39.688Z,17.42
2022-09-28T22:48:44.669Z,17.46
2022-09-28T22:50:50.807Z,17.51
2022-09-28T22:52:52.381Z,17.24
2022-09-28T22:54:54.097Z,17.14
2022-09-28T22:56:55.806Z,17.19
2022-09-28T22:58:57.963Z,17.30
2022-09-28T23:01:14.778Z,17.42
2022-09-28T23:03:16.636Z,17.45
2022-09-28T23:05:19.179Z,17.43
2022-09-28T23:07:21.744Z,17.40
2022-09-28T23:09:23.372Z,17.43
2022-09-28T23:11:25.088Z,17.50
2022-09-28T23:13:27.239Z,17.56
2022-09-28T23:15:29.656Z,17.60
2022-09-28T23:17:31.290Z,17.60
2022-09-28T23:19:33.231Z,17.59
2022-09-28T23:21:34.839Z,17.62
2022-09-28T23:23:36.431Z,17.58
2022-09-28T23:25:38.212Z,17.58
2022-09-28T23:27:39.882Z,17.63
2022-09-28T23:29:46.886Z,17.63
2022-09-28T23:31:48.529Z,17.42
2022-09-28T23:33:50.848Z,17.16
2022-09-28T23:35:52.427Z,17.02
2022-09-28T23:37:54.078Z,17.06
2022-09-28T23:39:56.076Z,17.18
2022-09-28T23:41:58.954Z,17.13
2022-09-28T23:44:00.969Z,17.08
2022-09-28T23:46:03.977Z,17.13
2022-09-28T23:48:05.640Z,17.17
2022-09-28T23:50:08.045Z,17.05
2022-09-28T23:52:09.678Z,17.00
2022-09-28T23:54:11.631Z,17.04
2022-09-28T23:56:14.774Z,17.11
2022-09-28T23:58:16.461Z,17.12
